Terminal Aerodrome Forecast
Issued by NWS

Home | Current Version | Previous Version | Text Only | Print | Product List | Glossary On
Versions: 1 2 3 4 5 6 7 8 9 10 11 12 13
000
FTUS45 KRIW 020525
TAFWRL
TAF
KWRL 020525Z 0206/0306 19008KT P6SM SCT100
     FM021200 VRB05KT P6SM SCT110
     FM022100 20010G18KT P6SM SCT110
     FM030100 19007KT P6SM SCT120=

USA.gov is the U.S. government's official web portal to all federal, state and local government web resources and services.